Time;durP1;ratioP1;P1;durP2;ratioP2;P2;SDS_P1;SDS_P2;PMS_P1;PMS_P2;Temp;Humidity;BMP_temperature;BMP_pressure;BME280_temperature;BME280_humidity;BME280_pressure;Samples;Min_cycle;Max_cycle;Signal;HPM_P1;HPM_P2
2023/11/09 00:02:17;;;;;;;3.00;1.73;;;9.90;99.40;;;;;;4978948;28;20031;-67
2023/11/09 00:04:43;;;;;;;5.83;1.50;;;9.90;99.30;;;;;;4982996;28;20021;-69
2023/11/09 00:07:09;;;;;;;6.37;1.80;;;9.90;99.60;;;;;;4981551;28;20039;-68
2023/11/09 00:09:35;;;;;;;3.25;1.52;;;10.00;98.70;;;;;;4979648;28;20037;-68
2023/11/09 00:12:01;;;;;;;8.95;1.50;;;10.00;99.20;;;;;;4974652;28;20042;-66
2023/11/09 00:14:26;;;;;;;3.77;1.30;;;9.90;99.50;;;;;;4977936;28;20045;-65
2023/11/09 00:16:53;;;;;;;3.23;1.40;;;9.90;99.50;;;;;;4966389;28;20022;-67
2023/11/09 00:19:19;;;;;;;3.25;1.20;;;9.90;99.70;;;;;;4981039;28;20030;-68
2023/11/09 00:21:46;;;;;;;3.00;1.35;;;10.00;99.50;;;;;;4973075;28;20030;-65
2023/11/09 00:24:14;;;;;;;;;;;10.00;99.50;;;;;;4976707;28;20039;-65
2023/11/09 00:26:45;;;;;;;5.20;1.20;;;9.90;99.90;;;;;;4979099;28;19917;-67
2023/11/09 00:29:12;;;;;;;2.88;1.15;;;10.00;99.90;;;;;;4978693;28;20050;-66
2023/11/09 00:31:38;;;;;;;4.88;1.30;;;10.00;99.80;;;;;;4998975;28;20042;-66
2023/11/09 00:34:04;;;;;;;2.17;1.08;;;10.00;99.90;;;;;;4981143;28;20414;-69
2023/11/09 00:36:30;;;;;;;3.80;1.42;;;10.00;99.90;;;;;;4987204;28;20066;-68
2023/11/09 00:38:56;;;;;;;2.40;1.30;;;9.90;99.90;;;;;;4982827;28;20129;-66
2023/11/09 00:41:21;;;;;;;2.00;1.30;;;9.90;99.90;;;;;;4980416;28;20046;-68
2023/11/09 00:43:47;;;;;;;3.13;1.67;;;9.90;99.90;;;;;;4979282;28;20026;-69
2023/11/09 00:46:13;;;;;;;3.87;1.83;;;9.80;99.90;;;;;;4979259;28;20030;-65
2023/11/09 00:48:38;;;;;;;1.67;1.13;;;9.70;99.90;;;;;;4995402;28;20156;-65
2023/11/09 00:51:04;;;;;;;3.07;1.57;;;9.80;99.90;;;;;;4974527;28;20043;-64
2023/11/09 00:53:30;;;;;;;2.87;1.20;;;9.80;99.90;;;;;;4981296;28;20406;-67
2023/11/09 00:55:55;;;;;;;2.05;1.25;;;9.80;99.90;;;;;;4979370;28;20105;-68
2023/11/09 00:58:23;;;;;;;1.63;1.10;;;9.80;99.90;;;;;;4982045;28;20125;-68
2023/11/09 01:00:48;;;;;;;3.65;1.25;;;9.90;99.90;;;;;;4986258;28;20049;-68
2023/11/09 01:03:14;;;;;;;5.97;1.60;;;9.80;99.90;;;;;;4979619;28;20506;-64
2023/11/09 01:05:40;;;;;;;4.43;1.70;;;9.80;99.90;;;;;;4981384;28;20034;-67
2023/11/09 01:08:05;;;;;;;8.03;1.67;;;9.80;99.90;;;;;;4976230;28;20125;-67
2023/11/09 01:10:31;;;;;;;4.13;1.70;;;9.80;99.90;;;;;;4977429;28;20114;-68
2023/11/09 01:12:57;;;;;;;4.13;1.53;;;9.80;99.90;;;;;;4981607;28;20176;-64
2023/11/09 01:15:22;;;;;;;5.77;1.70;;;9.90;99.70;;;;;;4999703;28;20287;-64
2023/11/09 01:18:06;;;;;;;3.67;1.40;;;9.80;99.90;;;;;;4977455;28;20558;-65
2023/11/09 01:20:33;;;;;;;1.83;1.02;;;9.90;99.50;;;;;;4980836;28;20043;-66
2023/11/09 01:22:58;;;;;;;;;;;10.00;99.40;;;;;;4979189;28;20073;-64
2023/11/09 01:25:24;;;;;;;5.30;1.35;;;9.90;99.60;;;;;;4978524;28;19910;-64
2023/11/09 01:27:50;;;;;;;4.33;1.17;;;10.00;99.70;;;;;;4980798;28;20415;-64
2023/11/09 01:30:16;;;;;;;2.70;1.10;;;9.90;99.30;;;;;;4980613;28;20483;-66
2023/11/09 01:32:42;;;;;;;3.92;1.33;;;10.00;99.70;;;;;;4981865;28;20053;-67
2023/11/09 01:35:08;;;;;;;4.77;1.30;;;10.00;99.50;;;;;;4979307;28;20039;-64
2023/11/09 01:37:34;;;;;;;3.28;1.00;;;10.00;99.40;;;;;;4966315;28;20037;-66
2023/11/09 01:40:09;;;;;;;2.27;0.73;;;9.90;99.40;;;;;;4976599;28;20035;-64
2023/11/09 01:42:35;;;;;;;5.13;1.55;;;9.90;99.10;;;;;;4977132;28;20035;-69
2023/11/09 01:45:04;;;;;;;4.45;1.20;;;10.20;96.80;;;;;;4976136;28;20499;-66
2023/11/09 01:47:30;;;;;;;3.53;1.10;;;10.20;97.40;;;;;;4978476;28;20046;-69
2023/11/09 01:49:56;;;;;;;2.30;1.17;;;10.20;97.50;;;;;;4981350;28;20023;-65
2023/11/09 01:52:21;;;;;;;3.40;0.90;;;10.30;96.70;;;;;;4974889;28;20039;-68
2023/11/09 01:54:47;;;;;;;4.53;1.20;;;10.20;97.20;;;;;;4980121;28;20069;-68
2023/11/09 01:57:13;;;;;;;1.77;1.05;;;10.20;97.00;;;;;;4983133;28;20039;-67
2023/11/09 01:59:43;;;;;;;2.35;0.90;;;10.40;95.50;;;;;;4981514;28;20125;-64
2023/11/09 02:02:09;;;;;;;2.88;1.10;;;10.30;94.20;;;;;;4976093;28;20038;-67
2023/11/09 02:04:35;;;;;;;1.58;0.98;;;10.40;93.40;;;;;;5000515;28;20022;-65
2023/11/09 02:07:00;;;;;;;2.83;1.00;;;10.50;92.50;;;;;;4979501;28;20418;-69
2023/11/09 02:09:28;;;;;;;2.00;1.00;;;10.40;93.00;;;;;;4984606;28;20090;-66
2023/11/09 02:11:54;;;;;;;1.50;0.80;;;10.60;91.60;;;;;;4981619;28;20026;-64
2023/11/09 02:14:20;;;;;;;2.80;1.05;;;10.50;92.60;;;;;;4985194;28;20029;-65
2023/11/09 02:16:47;;;;;;;1.63;0.90;;;10.50;93.00;;;;;;4985154;28;20034;-68
2023/11/09 02:19:17;;;;;;;3.33;0.63;;;10.60;91.90;;;;;;4981121;28;20034;-66
2023/11/09 02:21:47;;;;;;;2.00;0.70;;;10.60;91.30;;;;;;4984469;28;20028;-66
2023/11/09 02:24:13;;;;;;;2.67;0.80;;;10.70;90.20;;;;;;4979731;28;20042;-67
2023/11/09 02:26:39;;;;;;;2.55;0.80;;;10.80;88.10;;;;;;4979101;28;20031;-64
2023/11/09 02:29:05;;;;;;;;;;;10.90;89.30;;;;;;4983479;28;20510;-65
2023/11/09 02:31:31;;;;;;;2.92;0.93;;;11.00;86.90;;;;;;4987881;28;19925;-64
2023/11/09 02:33:57;;;;;;;4.85;0.80;;;11.10;86.10;;;;;;4981210;28;20097;-66
2023/11/09 02:36:24;;;;;;;2.90;0.95;;;10.90;88.00;;;;;;4981568;28;20042;-65
2023/11/09 02:38:50;;;;;;;1.25;0.73;;;11.00;87.40;;;;;;4975045;28;20042;-65
2023/11/09 02:41:18;;;;;;;1.45;0.70;;;10.90;87.70;;;;;;4977754;28;20038;-65
2023/11/09 02:43:43;;;;;;;1.27;0.80;;;11.10;85.70;;;;;;4979477;28;20073;-64
2023/11/09 02:46:13;;;;;;;5.87;0.80;;;11.00;87.70;;;;;;4976714;28;20069;-67
2023/11/09 02:48:40;;;;;;;1.00;0.63;;;11.10;85.70;;;;;;4978318;28;20875;-65
2023/11/09 02:51:07;;;;;;;2.72;0.95;;;10.90;86.00;;;;;;4979300;28;20035;-66
2023/11/09 02:53:33;;;;;;;3.10;0.65;;;10.90;87.70;;;;;;4976702;28;20042;-65
2023/11/09 02:55:58;;;;;;;1.15;0.73;;;10.70;89.80;;;;;;4980368;28;20080;-63
2023/11/09 02:58:24;;;;;;;2.60;0.70;;;10.70;90.00;;;;;;4979455;28;20035;-66
2023/11/09 03:00:50;;;;;;;3.20;0.87;;;10.70;88.80;;;;;;4976239;28;20034;-69
2023/11/09 03:03:17;;;;;;;2.90;0.88;;;10.70;89.20;;;;;;4981938;28;20084;-64
2023/11/09 03:05:43;;;;;;;;;;;11.00;86.30;;;;;;4983053;28;20690;-68
2023/11/09 03:08:09;;;;;;;1.92;0.90;;;10.90;87.90;;;;;;4984520;28;19922;-65
2023/11/09 03:10:35;;;;;;;1.50;0.90;;;10.80;88.10;;;;;;4980423;28;20031;-65
2023/11/09 03:13:01;;;;;;;6.77;1.17;;;10.90;85.00;;;;;;4981062;28;20085;-65
2023/11/09 03:15:27;;;;;;;1.55;1.05;;;10.80;87.60;;;;;;4982330;28;20054;-66
2023/11/09 03:17:52;;;;;;;1.80;0.70;;;10.80;88.90;;;;;;4980372;28;20043;-66
2023/11/09 03:20:18;;;;;;;2.67;1.35;;;10.80;87.10;;;;;;4985079;28;20023;-65
2023/11/09 03:22:45;;;;;;;2.42;0.80;;;10.80;88.50;;;;;;4981324;28;20034;-67
2023/11/09 03:25:11;;;;;;;3.50;1.30;;;11.00;86.70;;;;;;4980640;28;20031;-66
2023/11/09 03:27:36;;;;;;;3.65;0.88;;;11.10;85.20;;;;;;4981673;28;20521;-68
2023/11/09 03:30:02;;;;;;;3.93;1.07;;;11.10;87.30;;;;;;4978226;28;20034;-64
2023/11/09 03:32:28;;;;;;;1.77;1.00;;;11.10;87.50;;;;;;4980946;28;20022;-64
2023/11/09 03:34:54;;;;;;;4.37;1.30;;;11.00;88.50;;;;;;4979047;28;20104;-65
2023/11/09 03:37:20;;;;;;;2.23;1.10;;;11.20;86.40;;;;;;4978162;28;20037;-65
2023/11/09 03:39:45;;;;;;;4.63;1.35;;;11.20;87.20;;;;;;4979563;28;20037;-64
2023/11/09 03:42:14;;;;;;;2.30;0.80;;;11.10;87.20;;;;;;4978388;28;20042;-67
2023/11/09 03:44:40;;;;;;;1.25;0.88;;;11.10;89.40;;;;;;4980523;28;20035;-66
2023/11/09 03:47:06;;;;;;;1.95;0.90;;;11.10;88.60;;;;;;4978353;28;20097;-64
2023/11/09 03:49:37;;;;;;;2.58;0.95;;;11.10;90.80;;;;;;4976567;28;20026;-65
2023/11/09 03:52:03;;;;;;;4.18;1.10;;;11.00;90.30;;;;;;4973551;28;20038;-64
2023/11/09 03:54:28;;;;;;;3.45;1.63;;;11.00;90.80;;;;;;4990189;28;20031;-66
2023/11/09 03:56:54;;;;;;;2.87;1.20;;;11.00;92.50;;;;;;4975006;28;20042;-65
2023/11/09 03:59:20;;;;;;;8.70;1.30;;;10.80;93.60;;;;;;4975714;28;20039;-66
2023/11/09 04:01:45;;;;;;;5.63;1.50;;;10.80;95.50;;;;;;4980566;28;20054;-66
2023/11/09 04:04:11;;;;;;;3.47;1.20;;;10.60;96.30;;;;;;4961103;28;20030;-64
2023/11/09 04:06:36;;;;;;;3.67;1.77;;;10.40;99.80;;;;;;4976853;28;20040;-66
2023/11/09 04:09:05;;;;;;;4.80;1.53;;;10.30;99.90;;;;;;4973962;28;20579;-65
2023/11/09 04:11:30;;;;;;;2.40;1.27;;;10.10;99.90;;;;;;4979471;28;20465;-65
2023/11/09 04:13:56;;;;;;;5.47;2.00;;;10.00;99.90;;;;;;4978175;28;20066;-65
2023/11/09 04:16:22;;;;;;;5.13;1.40;;;9.90;99.90;;;;;;4981042;28;20103;-65
2023/11/09 04:18:47;;;;;;;6.30;1.50;;;9.80;99.90;;;;;;4977195;28;20034;-66
2023/11/09 04:21:13;;;;;;;6.13;1.27;;;9.80;99.90;;;;;;4962242;28;20345;-65
2023/11/09 04:23:39;;;;;;;9.00;1.60;;;9.70;99.90;;;;;;4983956;28;20034;-64
2023/11/09 04:26:08;;;;;;;3.45;1.20;;;9.60;99.90;;;;;;4980186;28;20035;-64
2023/11/09 04:28:35;;;;;;;4.82;1.20;;;9.60;99.90;;;;;;4981946;28;20050;-64
2023/11/09 04:31:01;;;;;;;1.90;1.10;;;9.60;99.90;;;;;;4976519;28;20086;-65
2023/11/09 04:33:27;;;;;;;3.10;1.23;;;9.60;99.90;;;;;;4981901;28;20074;-64
2023/11/09 04:35:55;;;;;;;4.35;1.50;;;9.60;99.90;;;;;;4979876;28;20105;-67
2023/11/09 04:38:24;;;;;;;4.68;1.45;;;9.60;99.90;;;;;;4972990;28;20038;-68
2023/11/09 04:41:04;;;;;;;4.82;1.45;;;9.60;99.90;;;;;;4984704;28;20018;-65
2023/11/09 04:43:30;;;;;;;1.75;1.20;;;9.60;99.90;;;;;;4984650;28;21020;-64
2023/11/09 04:46:05;;;;;;;2.80;1.10;;;9.60;99.90;;;;;;4985477;28;20133;-65
2023/11/09 04:48:31;;;;;;;3.10;1.00;;;9.60;99.90;;;;;;4976105;28;20042;-67
2023/11/09 04:51:01;;;;;;;2.08;1.13;;;9.60;99.90;;;;;;4980142;28;20183;-65
2023/11/09 04:53:31;;;;;;;6.50;1.73;;;9.70;99.90;;;;;;4986780;28;20030;-66
2023/11/09 04:56:07;;;;;;;4.60;1.30;;;9.70;99.90;;;;;;4981618;28;20026;-64
2023/11/09 04:58:44;;;;;;;3.50;1.42;;;9.70;99.90;;;;;;4981550;28;20395;-66
2023/11/09 05:06:55;;;;;;;7.32;1.20;;;9.70;99.90;;;;;;4976096;28;20090;-64
2023/11/09 05:09:23;;;;;;;2.45;1.02;;;9.70;99.90;;;;;;4977475;28;20045;-64
2023/11/09 05:11:50;;;;;;;5.05;1.17;;;9.60;99.90;;;;;;4982130;28;20026;-68
2023/11/09 05:14:16;;;;;;;2.50;1.20;;;9.70;99.90;;;;;;4986966;28;20026;-65
2023/11/09 05:16:43;;;;;;;6.57;1.40;;;9.70;99.90;;;;;;4976045;28;20520;-64
2023/11/09 05:19:10;;;;;;;2.22;1.00;;;9.70;99.90;;;;;;4978389;28;20045;-66
2023/11/09 05:21:36;;;;;;;2.47;1.15;;;9.70;99.90;;;;;;4986740;28;20517;-68
2023/11/09 05:24:02;;;;;;;5.28;1.60;;;9.70;99.90;;;;;;4982352;28;20039;-64
2023/11/09 05:26:32;;;;;;;9.90;1.50;;;9.70;99.90;;;;;;4975631;28;20030;-66
2023/11/09 05:28:57;;;;;;;5.03;1.20;;;9.70;99.90;;;;;;4979779;28;20069;-67
2023/11/09 05:31:26;;;;;;;2.90;1.47;;;9.70;99.90;;;;;;4976229;28;20478;-66
2023/11/09 05:33:53;;;;;;;3.17;1.50;;;9.70;99.90;;;;;;4983547;28;20542;-65
2023/11/09 05:36:19;;;;;;;10.45;2.65;;;9.80;99.90;;;;;;4983412;28;20101;-65
2023/11/09 05:38:45;;;;;;;4.70;1.67;;;9.80;99.90;;;;;;4977038;28;20115;-67
2023/11/09 05:41:10;;;;;;;4.63;1.43;;;9.80;99.90;;;;;;4981402;28;20557;-65
2023/11/09 05:43:36;;;;;;;3.13;1.37;;;9.80;99.90;;;;;;4985350;28;20442;-65
2023/11/09 05:46:02;;;;;;;6.70;1.33;;;9.80;99.90;;;;;;4963800;28;20036;-65
2023/11/09 05:48:28;;;;;;;1.83;1.23;;;9.80;99.90;;;;;;4976158;28;20442;-66
2023/11/09 05:50:55;;;;;;;5.20;1.13;;;9.70;99.90;;;;;;4982012;28;20026;-65
2023/11/09 05:53:21;;;;;;;5.05;1.15;;;9.70;99.90;;;;;;4976480;28;20636;-64
2023/11/09 05:55:46;;;;;;;3.60;0.90;;;9.80;99.90;;;;;;4983955;28;20044;-65
2023/11/09 05:58:12;;;;;;;3.53;1.13;;;9.80;99.90;;;;;;4982496;28;20061;-65
2023/11/09 06:00:40;;;;;;;4.47;1.17;;;9.80;99.90;;;;;;4985697;28;20031;-64
2023/11/09 06:03:06;;;;;;;4.72;1.42;;;9.70;99.90;;;;;;4985096;28;20042;-64
2023/11/09 06:05:31;;;;;;;3.70;1.27;;;9.60;99.90;;;;;;4983199;28;20518;-66
2023/11/09 06:07:57;;;;;;;7.20;2.30;;;9.70;99.90;;;;;;4979034;28;20046;-67
2023/11/09 06:10:25;;;;;;;4.23;1.90;;;9.60;99.90;;;;;;4981422;28;20026;-67
2023/11/09 06:12:51;;;;;;;4.50;1.67;;;9.60;99.90;;;;;;4983622;28;20031;-64
2023/11/09 06:15:16;;;;;;;7.15;2.30;;;9.50;99.90;;;;;;4995174;28;20034;-67
2023/11/09 06:17:45;;;;;;;3.23;1.77;;;9.50;99.90;;;;;;4974737;28;20541;-65
2023/11/09 06:20:16;;;;;;;8.30;2.20;;;9.50;99.90;;;;;;4976843;28;20507;-64
2023/11/09 06:22:43;;;;;;;4.15;2.03;;;9.60;99.90;;;;;;4979514;28;20049;-66
2023/11/09 06:25:10;;;;;;;3.38;1.60;;;9.60;99.90;;;;;;4978185;28;20031;-67
2023/11/09 06:27:36;;;;;;;7.07;1.85;;;9.60;99.90;;;;;;4977097;28;20049;-66
2023/11/09 06:30:04;;;;;;;3.65;1.83;;;9.50;99.90;;;;;;4972400;28;20027;-65
2023/11/09 06:32:30;;;;;;;3.42;1.75;;;9.50;99.90;;;;;;4979362;28;20494;-67
2023/11/09 06:34:57;;;;;;;3.35;1.55;;;9.60;99.90;;;;;;4985136;28;20029;-65
2023/11/09 06:37:23;;;;;;;3.83;1.48;;;9.50;99.90;;;;;;4979159;28;20097;-67
2023/11/09 06:39:49;;;;;;;6.60;2.07;;;9.60;99.90;;;;;;4983273;28;20030;-65
2023/11/09 06:42:18;;;;;;;;;;;9.50;99.90;;;;;;4982567;28;20494;-68
2023/11/09 06:44:44;;;;;;;7.72;2.00;;;9.50;99.90;;;;;;4977595;28;19914;-66
2023/11/09 06:47:10;;;;;;;;;;;9.40;99.90;;;;;;4976446;28;20047;-65
2023/11/09 06:49:36;;;;;;;4.63;2.70;;;9.30;99.90;;;;;;4979809;28;20354;-66
2023/11/09 06:52:04;;;;;;;4.15;2.13;;;9.40;99.90;;;;;;4982949;28;20089;-65
2023/11/09 06:54:32;;;;;;;5.95;3.00;;;9.40;99.90;;;;;;4971982;28;20726;-67
2023/11/09 06:57:02;;;;;;;5.40;2.05;;;9.40;99.90;;;;;;4984143;28;20545;-66
2023/11/09 06:59:28;;;;;;;7.13;2.85;;;9.40;99.90;;;;;;4967332;28;20375;-66
2023/11/09 07:01:54;;;;;;;5.72;2.95;;;9.40;99.90;;;;;;4978779;28;20076;-66
2023/11/09 07:04:20;;;;;;;6.90;3.05;;;9.40;99.90;;;;;;4981135;28;20113;-66
2023/11/09 07:06:47;;;;;;;9.63;3.25;;;9.40;99.90;;;;;;4984465;28;20586;-66
2023/11/09 07:09:13;;;;;;;10.05;3.78;;;9.40;99.90;;;;;;4978116;28;20042;-66
2023/11/09 07:11:42;;;;;;;13.13;3.25;;;9.50;99.90;;;;;;4985405;28;20030;-66
2023/11/09 07:14:08;;;;;;;6.65;3.05;;;9.30;99.90;;;;;;4976096;28;20049;-65
2023/11/09 07:16:34;;;;;;;6.65;3.53;;;9.40;99.90;;;;;;4980089;28;20031;-65
2023/11/09 07:19:00;;;;;;;3.77;2.90;;;9.50;99.90;;;;;;4977365;28;20045;-65
2023/11/09 07:21:26;;;;;;;6.50;3.95;;;9.50;99.90;;;;;;4978134;28;20129;-65
2023/11/09 07:23:59;;;;;;;9.47;5.57;;;9.50;99.90;;;;;;4979992;28;20157;-65
2023/11/09 07:26:25;;;;;;;14.07;5.43;;;9.40;99.90;;;;;;4972105;28;20035;-66
2023/11/09 07:28:51;;;;;;;9.57;3.92;;;9.40;99.90;;;;;;4984639;28;20122;-66
2023/11/09 07:31:17;;;;;;;9.25;4.78;;;9.40;99.90;;;;;;4981425;28;20115;-66
2023/11/09 07:33:44;;;;;;;8.90;3.90;;;9.40;99.90;;;;;;4975444;28;20060;-66
2023/11/09 07:36:10;;;;;;;8.00;4.47;;;9.40;99.90;;;;;;4980469;28;20034;-66
2023/11/09 07:38:36;;;;;;;11.55;5.20;;;9.40;99.90;;;;;;4983252;28;20118;-65
2023/11/09 07:41:02;;;;;;;14.87;5.50;;;9.40;99.90;;;;;;4976498;28;20087;-65
2023/11/09 07:43:29;;;;;;;22.98;7.18;;;9.40;99.90;;;;;;4973705;28;20473;-67
2023/11/09 07:45:55;;;;;;;13.88;7.13;;;9.40;99.90;;;;;;4981615;28;20041;-65
2023/11/09 07:48:23;;;;;;;15.32;7.65;;;9.40;99.90;;;;;;4976890;28;20043;-65
2023/11/09 07:50:50;;;;;;;22.40;7.72;;;9.50;99.90;;;;;;4976433;28;20046;-65
2023/11/09 07:53:16;;;;;;;16.08;6.10;;;9.40;99.90;;;;;;4975764;28;20045;-66
2023/11/09 07:55:42;;;;;;;8.50;4.25;;;9.20;99.90;;;;;;4983388;28;20032;-66
2023/11/09 07:58:08;;;;;;;8.57;4.77;;;9.20;99.90;;;;;;4974351;28;20458;-64
2023/11/09 08:00:34;;;;;;;;;;;9.20;99.90;;;;;;4993866;28;20286;-65
2023/11/09 08:02:59;;;;;;;9.55;4.15;;;9.20;99.90;;;;;;4978560;28;19914;-66
2023/11/09 08:05:26;;;;;;;7.78;3.83;;;9.30;99.90;;;;;;4976625;28;20117;-66
2023/11/09 08:07:54;;;;;;;7.63;3.95;;;9.30;99.90;;;;;;4976186;28;20145;-65
2023/11/09 08:10:21;;;;;;;6.60;3.42;;;9.20;99.90;;;;;;4977124;28;20392;-67
2023/11/09 08:12:48;;;;;;;10.90;4.40;;;9.20;99.90;;;;;;4980185;28;20039;-65
2023/11/09 08:15:18;;;;;;;;;;;9.20;99.90;;;;;;4966461;28;20027;-65
2023/11/09 08:17:44;;;;;;;12.25;3.47;;;9.30;99.90;;;;;;4979784;28;19909;-66
2023/11/09 08:20:13;;;;;;;4.07;2.25;;;9.30;99.90;;;;;;4975213;28;20526;-66
2023/11/09 08:22:48;;;;;;;10.35;2.35;;;9.30;99.90;;;;;;4982679;28;20619;-66
2023/11/09 08:25:14;;;;;;;5.72;2.47;;;9.30;99.90;;;;;;4977135;28;20041;-66
2023/11/09 08:27:40;;;;;;;;;;;9.40;99.90;;;;;;4982639;28;20605;-67
2023/11/09 08:30:11;;;;;;;5.85;2.50;;;9.40;99.90;;;;;;4979850;28;20024;-66
2023/11/09 08:32:37;;;;;;;4.28;2.20;;;9.40;99.90;;;;;;4981470;28;20026;-66
2023/11/09 08:35:10;;;;;;;6.15;2.05;;;9.40;99.90;;;;;;4993408;28;20027;-66
2023/11/09 08:37:38;;;;;;;5.30;2.20;;;9.40;99.90;;;;;;4973472;28;20516;-66
2023/11/09 08:40:09;;;;;;;6.93;2.22;;;9.50;99.90;;;;;;4978341;28;20085;-66
2023/11/09 08:42:36;;;;;;;5.20;1.80;;;9.50;99.90;;;;;;4980647;28;20450;-66
2023/11/09 08:45:04;;;;;;;5.20;1.90;;;9.60;99.90;;;;;;4973715;28;20043;-65
2023/11/09 08:47:29;;;;;;;3.60;1.90;;;9.60;99.90;;;;;;4967065;28;20373;-65
2023/11/09 08:49:55;;;;;;;3.67;2.40;;;9.60;99.90;;;;;;4975820;28;20031;-65
2023/11/09 08:52:23;;;;;;;9.40;1.90;;;9.70;99.90;;;;;;4975245;28;20034;-65
2023/11/09 08:54:51;;;;;;;3.50;1.50;;;9.70;99.90;;;;;;4978432;28;20364;-65
2023/11/09 08:57:18;;;;;;;3.95;1.90;;;9.70;99.90;;;;;;4977868;28;20132;-64
2023/11/09 08:59:44;;;;;;;;;;;9.80;99.90;;;;;;4976387;28;20027;-69
2023/11/09 09:02:10;;;;;;;4.22;2.03;;;9.80;99.90;;;;;;4979566;28;19941;-66
2023/11/09 09:04:35;;;;;;;5.77;3.37;;;9.80;99.90;;;;;;4982455;28;20030;-66
2023/11/09 09:07:01;;;;;;;8.43;4.30;;;9.80;99.90;;;;;;4982027;28;20402;-65
2023/11/09 09:09:27;;;;;;;7.43;3.83;;;9.70;99.90;;;;;;4979443;28;20510;-65
2023/11/09 09:11:53;;;;;;;28.20;5.70;;;9.70;99.90;;;;;;4982329;28;20081;-65
2023/11/09 09:14:19;;;;;;;9.10;4.93;;;9.70;99.90;;;;;;4979653;28;20035;-65
2023/11/09 09:16:45;;;;;;;9.37;5.27;;;9.60;99.90;;;;;;4981274;28;20026;-65
2023/11/09 09:19:10;;;;;;;17.98;6.53;;;9.60;99.90;;;;;;4980771;28;20133;-65
2023/11/09 09:21:36;;;;;;;9.70;5.27;;;9.60;99.90;;;;;;4982417;28;20031;-65
2023/11/09 09:24:03;;;;;;;9.35;5.20;;;9.60;99.90;;;;;;4980557;28;20061;-65
2023/11/09 09:26:31;;;;;;;;;;;9.70;99.90;;;;;;4973990;28;20039;-64
2023/11/09 09:28:57;;;;;;;7.90;4.80;;;9.70;99.90;;;;;;4977352;28;19971;-65
2023/11/09 09:31:23;;;;;;;9.07;5.67;;;9.70;99.90;;;;;;4983220;28;20030;-65
2023/11/09 09:34:07;;;;;;;21.38;7.28;;;9.70;99.90;;;;;;4968708;28;20039;-64
2023/11/09 09:36:34;;;;;;;10.57;4.88;;;9.80;99.90;;;;;;4981051;28;20042;-64
2023/11/09 09:38:59;;;;;;;;;;;9.80;99.90;;;;;;4975381;28;20856;-66
2023/11/09 09:41:28;;;;;;;16.20;6.25;;;9.80;99.90;;;;;;4977905;28;19910;-65
2023/11/09 09:44:03;;;;;;;18.75;7.53;;;9.90;99.90;;;;;;4981141;28;20027;-66
2023/11/09 09:46:33;;;;;;;19.95;6.22;;;9.80;99.90;;;;;;4982426;28;20097;-67
2023/11/09 09:48:58;;;;;;;19.35;8.00;;;9.90;99.90;;;;;;4980830;28;20039;-65
2023/11/09 09:51:26;;;;;;;12.10;6.30;;;9.90;99.90;;;;;;4977559;28;20028;-66
2023/11/09 09:53:54;;;;;;;10.90;5.78;;;9.90;99.90;;;;;;4982121;28;20325;-66
2023/11/09 09:56:21;;;;;;;8.90;6.25;;;9.90;99.90;;;;;;4984554;28;20468;-67
2023/11/09 09:58:50;;;;;;;11.77;6.57;;;9.90;99.90;;;;;;4981818;28;20042;-65
2023/11/09 10:01:19;;;;;;;18.27;8.05;;;10.00;99.90;;;;;;4956464;28;20138;-66
2023/11/09 10:03:47;;;;;;;11.05;5.80;;;10.00;99.90;;;;;;4984143;28;20034;-66
2023/11/09 10:06:13;;;;;;;12.27;4.78;;;10.00;99.90;;;;;;4978822;28;20026;-66
2023/11/09 10:08:40;;;;;;;10.30;3.83;;;10.00;99.90;;;;;;4983613;28;20430;-66
2023/11/09 10:11:06;;;;;;;6.68;3.50;;;9.90;99.90;;;;;;4981928;28;20031;-67
2023/11/09 10:13:33;;;;;;;8.20;4.00;;;9.90;99.90;;;;;;4979489;28;20659;-66
2023/11/09 10:16:00;;;;;;;5.55;3.22;;;9.90;99.90;;;;;;4979225;28;20481;-66
2023/11/09 10:18:31;;;;;;;5.93;3.25;;;10.00;99.90;;;;;;4980198;28;20027;-66
2023/11/09 10:20:58;;;;;;;9.13;4.03;;;10.00;99.90;;;;;;4975231;28;20023;-66
2023/11/09 10:23:26;;;;;;;5.13;3.28;;;9.90;99.90;;;;;;4984229;28;20022;-66
2023/11/09 10:25:52;;;;;;;6.97;3.72;;;9.80;99.90;;;;;;4979327;28;20026;-66
2023/11/09 10:28:20;;;;;;;;;;;9.90;99.90;;;;;;4980310;28;20042;-67
2023/11/09 10:30:46;;;;;;;;;;;10.00;99.90;;;;;;4979829;28;19922;-66
2023/11/09 10:33:16;;;;;;;10.05;4.60;;;10.10;99.90;;;;;;4980448;28;19925;-66
2023/11/09 10:35:44;;;;;;;8.98;5.20;;;10.10;99.90;;;;;;4966032;28;20045;-66
2023/11/09 10:38:12;;;;;;;11.02;4.55;;;10.10;99.90;;;;;;4976827;28;20570;-66
2023/11/09 10:40:42;;;;;;;5.97;4.25;;;10.10;99.90;;;;;;4984379;28;20038;-67
2023/11/09 10:43:14;;;;;;;11.63;5.53;;;10.10;99.90;;;;;;4983384;28;20084;-67
2023/11/09 10:45:47;;;;;;;12.13;6.22;;;10.20;99.90;;;;;;4978182;28;20038;-66
2023/11/09 10:48:22;;;;;;;16.48;7.35;;;10.20;99.90;;;;;;4977668;28;20050;-66
2023/11/09 10:50:49;;;;;;;14.90;6.70;;;10.10;99.90;;;;;;4978026;28;20026;-66
2023/11/09 10:53:21;;;;;;;;;;;10.20;99.90;;;;;;4963933;28;20033;-66
2023/11/09 10:55:59;;;;;;;11.15;5.25;;;10.20;99.90;;;;;;4978715;28;20517;-67
2023/11/09 10:58:25;;;;;;;12.40;6.47;;;10.00;99.90;;;;;;4978446;28;20042;-66
2023/11/09 11:00:58;;;;;;;6.53;4.75;;;10.10;99.90;;;;;;4978959;28;20114;-65
2023/11/09 11:03:54;;;;;;;9.65;4.95;;;10.00;99.90;;;;;;4978856;28;20027;-67
2023/11/09 11:06:51;;;;;;;14.07;5.18;;;9.80;99.90;;;;;;4980681;28;20165;-67
2023/11/09 11:09:26;;;;;;;9.43;5.03;;;9.80;99.90;;;;;;4979537;28;20485;-67
2023/11/09 11:12:01;;;;;;;15.10;5.07;;;9.70;99.90;;;;;;4118555;28;10000564;-67
2023/11/09 11:14:31;;;;;;;6.85;4.30;;;9.80;99.90;;;;;;4985867;28;20110;-68
2023/11/09 11:17:12;;;;;;;10.50;4.85;;;9.70;99.90;;;;;;4977645;28;20027;-69
2023/11/09 11:19:59;;;;;;;8.98;4.53;;;9.60;99.90;;;;;;4967977;28;20046;-69
2023/11/09 11:22:35;;;;;;;6.68;4.15;;;9.60;99.90;;;;;;4979105;28;20039;-68
2023/11/09 11:25:18;;;;;;;7.72;4.30;;;9.60;99.90;;;;;;4980510;28;20034;-68
2023/11/09 11:27:56;;;;;;;13.90;5.30;;;9.60;99.90;;;;;;4978769;28;20076;-67
2023/11/09 11:30:32;;;;;;;8.77;4.82;;;9.60;99.90;;;;;;4980715;28;20117;-66
2023/11/09 11:33:05;;;;;;;11.20;5.82;;;9.60;99.90;;;;;;4977627;28;20042;-67
2023/11/09 11:35:48;;;;;;;9.98;6.53;;;9.70;99.90;;;;;;4977438;28;20152;-67
2023/11/09 11:38:16;;;;;;;9.70;6.30;;;9.70;99.90;;;;;;4978161;28;20041;-67
2023/11/09 11:40:43;;;;;;;9.60;5.82;;;9.70;99.90;;;;;;4977033;28;20038;-67
2023/11/09 11:43:11;;;;;;;;;;;9.70;99.90;;;;;;4977126;28;20034;-67
2023/11/09 11:45:38;;;;;;;10.60;6.32;;;9.60;99.90;;;;;;4983268;28;20004;-66
2023/11/09 11:48:12;;;;;;;11.05;6.65;;;9.70;99.90;;;;;;4102974;28;10000944;-65
2023/11/09 11:50:40;;;;;;;11.90;6.65;;;9.70;99.90;;;;;;4982213;28;21235;-71
2023/11/09 11:53:12;;;;;;;10.05;6.20;;;9.70;99.90;;;;;;4980204;28;20101;-68
2023/11/09 11:56:10;;;;;;;8.20;5.28;;;9.70;99.90;;;;;;4983370;28;20048;-67
2023/11/09 11:59:00;;;;;;;9.00;6.07;;;9.70;99.90;;;;;;4975992;28;20050;-66
2023/11/09 12:01:33;;;;;;;10.60;6.25;;;9.70;99.90;;;;;;4979823;28;20049;-68
2023/11/09 12:04:00;;;;;;;14.43;7.32;;;9.70;99.90;;;;;;4979334;28;20037;-68
2023/11/09 12:06:30;;;;;;;10.52;7.03;;;9.80;99.90;;;;;;4981662;28;20082;-70
2023/11/09 12:08:59;;;;;;;16.73;7.03;;;9.90;99.90;;;;;;4980889;28;20038;-68
2023/11/09 12:11:28;;;;;;;12.15;7.40;;;10.00;99.90;;;;;;4991624;28;20034;-69
2023/11/09 12:13:56;;;;;;;15.10;8.15;;;10.10;99.90;;;;;;4981522;28;20030;-66
2023/11/09 12:16:25;;;;;;;12.98;8.23;;;10.10;99.90;;;;;;4979505;28;20047;-71
2023/11/09 12:18:56;;;;;;;14.57;6.40;;;10.30;99.90;;;;;;4977939;28;20384;-68
2023/11/09 12:21:23;;;;;;;13.38;5.35;;;10.30;99.90;;;;;;4976021;28;20117;-72
2023/11/09 12:23:54;;;;;;;9.88;5.32;;;10.20;99.90;;;;;;4980759;28;20534;-68
2023/11/09 12:26:20;;;;;;;10.05;4.55;;;10.30;99.90;;;;;;4980811;28;20034;-68
2023/11/09 12:28:50;;;;;;;8.70;4.43;;;10.30;99.90;;;;;;4976013;28;20635;-70
2023/11/09 12:31:16;;;;;;;7.15;3.35;;;10.30;99.90;;;;;;4973884;28;20023;-68
2023/11/09 12:34:01;;;;;;;6.45;4.15;;;10.20;99.90;;;;;;4976784;28;20092;-68
2023/11/09 12:36:26;;;;;;;9.25;3.80;;;10.20;99.90;;;;;;4983014;28;20043;-70
2023/11/09 12:38:52;;;;;;;7.63;3.70;;;10.20;99.90;;;;;;4975454;28;20504;-67
2023/11/09 12:41:26;;;;;;;7.03;2.90;;;10.30;99.90;;;;;;4972357;28;20031;-68
2023/11/09 12:43:51;;;;;;;6.07;2.78;;;10.40;99.90;;;;;;4984154;28;20517;-67
2023/11/09 12:46:23;;;;;;;9.50;3.40;;;10.40;99.90;;;;;;4982172;28;20034;-68
2023/11/09 12:48:48;;;;;;;4.78;2.85;;;10.50;99.90;;;;;;4979288;28;20417;-69
2023/11/09 12:51:21;;;;;;;4.13;2.63;;;10.60;99.90;;;;;;4970850;28;20035;-69
2023/11/09 12:53:50;;;;;;;6.80;2.67;;;10.60;99.90;;;;;;4983034;28;20453;-69
2023/11/09 12:56:19;;;;;;;5.20;3.03;;;10.50;99.90;;;;;;4978347;28;20070;-68
2023/11/09 12:58:49;;;;;;;5.63;3.03;;;10.60;99.90;;;;;;4978954;28;20053;-68
2023/11/09 13:01:15;;;;;;;4.75;2.88;;;10.60;99.90;;;;;;4979619;28;20062;-67
2023/11/09 13:03:49;;;;;;;6.47;2.40;;;10.50;99.90;;;;;;4981186;28;20074;-67
2023/11/09 13:06:23;;;;;;;5.10;3.03;;;10.50;99.90;;;;;;4974540;28;20063;-68